createdAt,value
2022-08-09T00:00:08.171Z,17.44
2022-08-09T00:02:49.058Z,17.44
2022-08-09T00:06:15.687Z,17.55
2022-08-09T00:08:11.352Z,17.52
2022-08-09T00:10:40.700Z,17.56
2022-08-09T00:13:16.982Z,17.59
2022-08-09T00:15:59.970Z,17.47
2022-08-09T00:18:31.394Z,17.55
2022-08-09T00:21:02.891Z,17.52
2022-08-09T00:23:57.564Z,17.58
2022-08-09T00:26:17.267Z,17.65
2022-08-09T00:28:52.652Z,17.58
2022-08-09T00:31:55.799Z,17.55
2022-08-09T00:34:10.891Z,17.51
2022-08-09T00:36:37.902Z,17.46
2022-08-09T00:39:06.744Z,17.45
2022-08-09T00:44:11.081Z,17.40
2022-08-09T00:44:31.179Z,17.40
2022-08-09T00:47:05.181Z,17.45
2022-08-09T00:49:36.579Z,17.44
2022-08-09T00:52:06.149Z,17.43
2022-08-09T00:54:45.494Z,17.43
2022-08-09T00:57:12.515Z,17.48
2022-08-09T00:59:46.532Z,17.50
2022-08-09T01:02:21.631Z,17.55
2022-08-09T01:05:02.630Z,17.61
2022-08-09T01:08:01.175Z,17.57
2022-08-09T01:10:40.821Z,17.53
2022-08-09T01:13:22.802Z,17.55
2022-08-09T01:15:52.931Z,17.56
2022-08-09T01:18:30.185Z,17.56
2022-08-09T01:21:17.706Z,17.53
2022-08-09T01:24:02.678Z,17.58
2022-08-09T01:26:55.893Z,17.63
2022-08-09T01:29:41.214Z,17.63
2022-08-09T01:32:31.153Z,17.65
2022-08-09T01:35:29.111Z,17.62
2022-08-09T01:38:09.235Z,17.62
2022-08-09T01:40:42.075Z,17.61
2022-08-09T01:43:10.363Z,17.58
2022-08-09T01:45:46.371Z,17.60
2022-08-09T01:48:19.267Z,17.52
2022-08-09T01:50:55.051Z,17.56
2022-08-09T01:53:29.242Z,17.57
2022-08-09T01:56:07.494Z,17.54
2022-08-09T01:58:35.550Z,17.49
2022-08-09T02:01:03.074Z,17.43
2022-08-09T02:03:31.526Z,17.39
2022-08-09T02:06:04.006Z,17.40
2022-08-09T02:08:57.640Z,17.36
2022-08-09T02:11:25.751Z,17.34
2022-08-09T02:14:10.555Z,17.27
2022-08-09T02:16:59.389Z,17.08
2022-08-09T02:19:35.005Z,17.23
2022-08-09T02:22:27.503Z,17.19
2022-08-09T02:25:01.788Z,17.13
2022-08-09T02:27:57.755Z,17.10
2022-08-09T02:30:17.882Z,17.02
2022-08-09T02:32:47.738Z,17.03
2022-08-09T02:35:23.104Z,17.00
2022-08-09T02:38:06.725Z,16.98
2022-08-09T02:40:35.891Z,16.94
2022-08-09T02:43:03.386Z,17.00
2022-08-09T02:45:39.912Z,17.04
2022-08-09T02:48:19.637Z,17.00
2022-08-09T02:50:59.922Z,17.17
2022-08-09T02:53:47.366Z,17.14
2022-08-09T02:56:27.924Z,17.20
2022-08-09T02:58:55.101Z,17.14
2022-08-09T03:01:29.065Z,17.14
2022-08-09T03:04:18.088Z,17.25
2022-08-09T03:06:45.450Z,17.61
2022-08-09T03:09:13.426Z,17.84
2022-08-09T03:12:10.535Z,17.72
2022-08-09T03:14:29.309Z,18.00
2022-08-09T03:16:58.443Z,18.17
2022-08-09T03:19:52.449Z,18.25
2022-08-09T03:22:24.941Z,18.45
2022-08-09T03:25:05.752Z,18.53
2022-08-09T03:27:45.275Z,18.32
2022-08-09T03:30:13.490Z,18.14
2022-08-09T03:32:41.130Z,18.24
2022-08-09T03:35:24.310Z,18.47
2022-08-09T03:37:54.530Z,19.11
2022-08-09T03:40:24.603Z,19.55
2022-08-09T03:42:51.614Z,18.98
2022-08-09T03:46:04.164Z,18.93
2022-08-09T03:48:05.436Z,18.97
2022-08-09T03:50:33.401Z,19.56
2022-08-09T03:53:03.165Z,19.91
2022-08-09T03:55:30.233Z,19.85
2022-08-09T03:58:09.756Z,19.75
2022-08-09T04:00:44.695Z,19.08
2022-08-09T04:03:24.535Z,19.19
2022-08-09T04:05:58.860Z,18.55
2022-08-09T04:08:28.795Z,18.07
2022-08-09T04:10:55.911Z,17.92
2022-08-09T04:14:37.742Z,17.78
2022-08-09T04:16:19.672Z,18.06
2022-08-09T04:18:47.840Z,18.97
2022-08-09T04:21:15.875Z,18.92
2022-08-09T04:23:53.598Z,19.09
2022-08-09T04:26:23.380Z,19.01
2022-08-09T04:28:50.217Z,19.09
2022-08-09T04:31:16.837Z,19.56
2022-08-09T04:33:52.381Z,19.39
2022-08-09T04:36:25.500Z,19.16
2022-08-09T04:38:56.925Z,19.17
2022-08-09T04:41:32.357Z,19.96
2022-08-09T04:44:06.683Z,20.35
2022-08-09T04:46:57.498Z,20.76
2022-08-09T04:49:40.862Z,20.74
2022-08-09T04:52:09.953Z,20.69
2022-08-09T04:54:36.820Z,20.15
2022-08-09T04:57:04.060Z,19.77
2022-08-09T04:59:31.162Z,19.62
2022-08-09T05:01:58.243Z,19.41
2022-08-09T05:04:30.647Z,19.43
2022-08-09T05:06:58.380Z,19.96
2022-08-09T05:09:24.993Z,20.28
2022-08-09T05:12:09.771Z,20.08
2022-08-09T05:14:41.270Z,20.17
2022-08-09T05:18:36.897Z,20.11
2022-08-09T05:19:56.733Z,20.07
2022-08-09T05:22:33.402Z,19.80
2022-08-09T05:25:04.415Z,19.29
2022-08-09T05:27:31.292Z,19.11
2022-08-09T05:29:57.938Z,18.98
2022-08-09T05:32:26.194Z,19.00
2022-08-09T05:34:56.826Z,18.95
2022-08-09T05:37:23.843Z,19.03
2022-08-09T05:39:51.783Z,19.12
2022-08-09T05:42:21.830Z,19.16
2022-08-09T05:44:53.491Z,19.79
2022-08-09T05:47:22.758Z,20.39
2022-08-09T05:50:30.922Z,20.22
2022-08-09T05:52:42.046Z,20.04
2022-08-09T05:55:18.058Z,19.68
2022-08-09T05:57:55.511Z,19.95
2022-08-09T06:00:28.871Z,20.07
2022-08-09T06:03:00.400Z,19.62
2022-08-09T06:05:31.095Z,19.71
2022-08-09T06:08:19.666Z,19.69
2022-08-09T06:10:53.464Z,20.03
2022-08-09T06:13:21.504Z,19.98
2022-08-09T06:15:52.326Z,20.47
2022-08-09T06:18:25.507Z,21.02
2022-08-09T06:20:56.936Z,20.26
2022-08-09T06:23:55.170Z,20.85
2022-08-09T06:26:13.663Z,20.81
2022-08-09T06:28:43.404Z,20.90
2022-08-09T06:31:10.504Z,20.69
2022-08-09T06:33:41.064Z,20.63
2022-08-09T06:36:09.371Z,20.15
2022-08-09T06:38:38.752Z,20.19
2022-08-09T06:41:18.871Z,20.20
2022-08-09T06:43:46.961Z,20.36
2022-08-09T06:46:39.756Z,20.48
2022-08-09T06:49:01.413Z,20.58
2022-08-09T06:51:28.346Z,20.69
2022-08-09T06:53:55.425Z,20.73
2022-08-09T06:56:30.893Z,20.74
2022-08-09T07:00:52.508Z,20.64
2022-08-09T07:01:58.132Z,21.17
2022-08-09T07:04:26.929Z,21.56
2022-08-09T07:07:00.722Z,21.77
2022-08-09T07:09:57.142Z,21.45
2022-08-09T07:12:18.023Z,21.37
2022-08-09T07:14:51.114Z,21.00
2022-08-09T07:17:19.818Z,21.47
2022-08-09T07:19:47.962Z,21.49
2022-08-09T07:22:18.090Z,21.08
2022-08-09T07:24:49.356Z,21.36
2022-08-09T07:27:33.366Z,20.76
2022-08-09T07:30:02.011Z,20.58
2022-08-09T07:32:33.637Z,21.05
2022-08-09T07:35:10.097Z,21.72
2022-08-09T07:37:42.895Z,21.46
2022-08-09T07:40:17.246Z,21.57
2022-08-09T07:42:54.476Z,21.19
2022-08-09T07:45:37.284Z,20.95
2022-08-09T07:48:06.999Z,20.86
2022-08-09T07:50:36.840Z,20.77
2022-08-09T07:53:05.135Z,20.98
2022-08-09T07:55:41.697Z,21.14
2022-08-09T07:58:21.611Z,21.66
2022-08-09T08:00:59.072Z,21.48
2022-08-09T08:03:33.579Z,21.42
2022-08-09T08:06:04.395Z,21.77
2022-08-09T08:09:00.418Z,21.45
2022-08-09T08:12:11.583Z,21.43
2022-08-09T08:14:06.494Z,21.21
2022-08-09T08:16:33.424Z,21.21
2022-08-09T08:19:02.793Z,21.31
2022-08-09T08:21:31.211Z,21.52
2022-08-09T08:24:01.237Z,21.91
2022-08-09T08:26:41.822Z,21.81
2022-08-09T08:29:27.732Z,21.92
2022-08-09T08:32:04.498Z,22.06
2022-08-09T08:34:34.364Z,22.16
2022-08-09T08:37:02.102Z,22.46
2022-08-09T08:39:28.845Z,22.11
2022-08-09T08:41:58.702Z,22.12
2022-08-09T08:44:29.554Z,21.91
2022-08-09T08:47:03.378Z,21.83
2022-08-09T08:49:48.686Z,21.80
2022-08-09T08:55:15.283Z,21.68
2022-08-09T08:57:57.290Z,21.85
2022-08-09T09:00:30.026Z,21.21
2022-08-09T09:03:08.567Z,21.40
2022-08-09T09:06:00.875Z,21.56
2022-08-09T09:08:30.537Z,21.55
2022-08-09T09:11:02.617Z,21.45
2022-08-09T09:13:34.751Z,22.03
2022-08-09T09:16:13.857Z,22.29
2022-08-09T09:18:45.863Z,22.19
2022-08-09T09:21:14.884Z,22.30
2022-08-09T09:23:57.349Z,22.54
2022-08-09T09:26:25.990Z,21.64
2022-08-09T09:29:03.992Z,22.16
2022-08-09T09:32:03.491Z,22.36
2022-08-09T09:34:24.835Z,22.42
2022-08-09T09:36:57.425Z,22.44
2022-08-09T09:39:54.757Z,22.00
2022-08-09T09:42:29.577Z,22.75
2022-08-09T09:45:08.110Z,22.82
2022-08-09T09:47:47.796Z,22.57
2022-08-09T09:50:17.517Z,23.06
2022-08-09T09:52:53.497Z,22.99
2022-08-09T09:55:28.709Z,22.66
2022-08-09T09:58:19.238Z,22.38
2022-08-09T10:00:52.770Z,21.96
2022-08-09T10:03:42.740Z,21.92
2022-08-09T10:06:11.681Z,22.39
2022-08-09T10:08:44.247Z,22.76
2022-08-09T10:11:59.774Z,22.88
2022-08-09T10:14:31.836Z,22.60
2022-08-09T10:17:40.071Z,22.04
2022-08-09T10:19:58.818Z,22.27
2022-08-09T10:22:34.139Z,22.62
2022-08-09T10:25:11.880Z,22.53
2022-08-09T10:27:56.041Z,22.64
2022-08-09T10:34:04.519Z,22.42
2022-08-09T10:36:00.911Z,22.78
2022-08-09T10:38:43.225Z,23.22
2022-08-09T10:41:17.832Z,22.48
2022-08-09T10:43:52.602Z,22.80
2022-08-09T10:46:54.557Z,22.86
2022-08-09T10:49:51.817Z,22.65
2022-08-09T10:53:00.019Z,22.88
2022-08-09T10:55:35.796Z,23.16
2022-08-09T10:58:34.618Z,22.23
2022-08-09T11:03:02.734Z,22.32
2022-08-09T11:04:27.983Z,22.11
2022-08-09T11:06:59.596Z,21.95
2022-08-09T11:09:41.209Z,21.80
2022-08-09T11:12:18.490Z,21.96
2022-08-09T11:15:05.753Z,22.33
2022-08-09T11:17:32.700Z,22.09
2022-08-09T11:20:22.658Z,22.25
2022-08-09T11:22:55.379Z,21.95
2022-08-09T11:25:45.111Z,21.79
2022-08-09T11:28:34.574Z,21.82
2022-08-09T11:31:04.191Z,21.93
2022-08-09T11:33:46.211Z,22.14
2022-08-09T11:36:30.430Z,22.39
2022-08-09T11:39:02.287Z,22.28
2022-08-09T11:41:38.536Z,22.31
2022-08-09T11:44:08.118Z,22.06
2022-08-09T11:46:57.217Z,22.00
2022-08-09T11:50:54.037Z,22.37
2022-08-09T11:53:21.256Z,22.38
2022-08-09T11:55:52.068Z,22.55
2022-08-09T11:58:32.556Z,22.57
2022-08-09T12:01:08.588Z,22.06
2022-08-09T12:03:57.201Z,21.97
2022-08-09T12:06:32.669Z,22.11
2022-08-09T12:09:19.535Z,22.10
2022-08-09T12:12:03.239Z,22.05
2022-08-09T12:14:48.830Z,21.93
2022-08-09T12:17:34.417Z,22.32
2022-08-09T12:20:34.585Z,21.95
2022-08-09T12:23:02.886Z,22.00
2022-08-09T12:25:37.402Z,22.38
2022-08-09T12:29:14.482Z,22.29
2022-08-09T12:31:31.259Z,22.12
2022-08-09T12:34:06.185Z,22.03
2022-08-09T12:36:33.621Z,22.11
2022-08-09T12:39:01.517Z,22.01
2022-08-09T12:41:36.364Z,22.35
2022-08-09T12:44:10.306Z,22.66
2022-08-09T12:46:41.806Z,22.90
2022-08-09T12:49:10.035Z,22.89
2022-08-09T12:52:01.204Z,22.53
2022-08-09T12:54:24.464Z,22.41
2022-08-09T12:56:54.093Z,22.01
2022-08-09T12:59:23.462Z,21.63
2022-08-09T13:01:59.221Z,21.76
2022-08-09T13:04:36.497Z,21.83
2022-08-09T13:07:19.961Z,21.97
2022-08-09T13:10:02.561Z,21.98
2022-08-09T13:12:29.385Z,21.78
2022-08-09T13:15:09.774Z,21.73
2022-08-09T13:18:03.479Z,22.04
2022-08-09T13:20:37.769Z,21.85
2022-08-09T13:24:16.560Z,22.09
2022-08-09T13:26:41.799Z,22.14
2022-08-09T13:29:12.981Z,22.48
2022-08-09T13:32:15.154Z,22.28
2022-08-09T13:34:41.687Z,21.99
2022-08-09T13:37:08.966Z,21.76
2022-08-09T13:41:46.924Z,21.81
2022-08-09T13:42:26.387Z,21.66
2022-08-09T13:44:53.454Z,21.11
2022-08-09T13:47:44.217Z,21.23
2022-08-09T13:50:18.244Z,21.24
2022-08-09T13:52:56.202Z,21.32
2022-08-09T13:55:23.050Z,21.23
2022-08-09T13:57:56.018Z,21.46
2022-08-09T14:00:28.537Z,21.25
2022-08-09T14:03:03.335Z,21.26
2022-08-09T14:05:59.171Z,21.56
2022-08-09T14:08:29.248Z,21.90
2022-08-09T14:10:57.063Z,21.80
2022-08-09T14:14:15.918Z,21.87
2022-08-09T14:16:18.370Z,21.58
2022-08-09T14:18:49.589Z,21.93
2022-08-09T14:21:22.498Z,21.95
2022-08-09T14:23:55.546Z,21.83
2022-08-09T14:26:30.528Z,21.94
2022-08-09T14:29:08.103Z,21.82
2022-08-09T14:31:54.054Z,21.73
2022-08-09T14:34:32.261Z,21.57
2022-08-09T14:37:01.851Z,21.60
2022-08-09T14:39:46.575Z,21.40
2022-08-09T14:42:40.362Z,21.44
2022-08-09T14:46:39.965Z,21.39
2022-08-09T14:47:58.495Z,21.25
2022-08-09T14:50:30.981Z,21.20
2022-08-09T14:52:58.694Z,21.16
2022-08-09T14:55:25.359Z,21.12
2022-08-09T14:57:56.005Z,21.20
2022-08-09T15:00:23.020Z,21.23
2022-08-09T15:02:51.825Z,21.32
2022-08-09T15:05:19.139Z,21.35
2022-08-09T15:07:56.222Z,21.24
2022-08-09T15:10:24.759Z,21.21
2022-08-09T15:12:52.530Z,21.00
2022-08-09T15:15:20.232Z,21.17
2022-08-09T15:17:52.355Z,21.00
2022-08-09T15:22:01.085Z,21.07
2022-08-09T15:24:02.198Z,20.79
2022-08-09T15:25:55.603Z,20.90
2022-08-09T15:28:27.235Z,20.91
2022-08-09T15:31:08.713Z,20.95
2022-08-09T15:34:19.607Z,20.90
2022-08-09T15:36:28.723Z,20.97
2022-08-09T15:38:57.071Z,20.84
2022-08-09T15:41:32.158Z,20.81
2022-08-09T15:44:02.546Z,20.85
2022-08-09T15:46:32.784Z,20.85
2022-08-09T15:49:22.352Z,20.65
2022-08-09T15:52:02.728Z,20.70
2022-08-09T15:54:49.468Z,20.74
2022-08-09T15:57:34.111Z,20.80
2022-08-09T16:00:14.126Z,20.73
2022-08-09T16:02:48.139Z,20.76
2022-08-09T16:05:22.443Z,20.81
2022-08-09T16:07:50.871Z,20.69
2022-08-09T16:10:54.912Z,20.66
2022-08-09T16:13:05.241Z,20.60
2022-08-09T16:16:10.835Z,20.67
2022-08-09T16:18:32.657Z,20.54
2022-08-09T16:20:59.339Z,20.63
2022-08-09T16:23:27.019Z,20.54
2022-08-09T16:26:00.964Z,20.45
2022-08-09T16:28:29.629Z,20.49
2022-08-09T16:30:58.877Z,20.50
2022-08-09T16:33:26.544Z,20.47
2022-08-09T16:35:59.072Z,20.49
2022-08-09T16:38:27.594Z,20.41
2022-08-09T16:40:56.451Z,20.44
2022-08-09T16:43:23.142Z,20.42
2022-08-09T16:45:53.809Z,20.35
2022-08-09T16:48:42.730Z,20.35
2022-08-09T16:51:14.048Z,20.30
2022-08-09T16:54:08.982Z,20.25
2022-08-09T16:56:30.670Z,20.19
2022-08-09T16:58:57.848Z,20.13
2022-08-09T17:01:25.120Z,19.99
2022-08-09T17:03:52.075Z,19.82
2022-08-09T17:06:31.280Z,19.74
2022-08-09T17:09:11.723Z,19.68
2022-08-09T17:11:48.000Z,19.57
2022-08-09T17:14:27.611Z,19.59
2022-08-09T17:17:01.652Z,19.55
2022-08-09T17:20:05.074Z,19.50
2022-08-09T17:22:23.956Z,19.53
2022-08-09T17:25:10.282Z,19.50
2022-08-09T17:27:48.751Z,19.50
2022-08-09T17:30:15.618Z,19.42
2022-08-09T17:32:45.470Z,19.38
2022-08-09T17:35:14.108Z,19.41
2022-08-09T17:38:12.745Z,19.53
2022-08-09T17:40:29.660Z,19.38
2022-08-09T17:42:59.820Z,19.29
2022-08-09T17:46:03.356Z,19.25
2022-08-09T17:48:29.280Z,19.32
2022-08-09T17:50:59.353Z,19.32
2022-08-09T17:53:43.024Z,19.34
2022-08-09T17:56:14.633Z,19.33
2022-08-09T17:58:44.882Z,19.39
2022-08-09T18:01:15.382Z,19.36
2022-08-09T18:03:49.240Z,19.41
2022-08-09T18:06:28.782Z,19.36
2022-08-09T18:09:03.424Z,19.51
2022-08-09T18:11:46.846Z,19.44
2022-08-09T18:14:23.265Z,19.52
2022-08-09T18:16:53.146Z,19.45
2022-08-09T18:20:56.208Z,19.45
2022-08-09T18:22:16.617Z,19.43
2022-08-09T18:24:45.539Z,19.49
2022-08-09T18:27:49.239Z,19.45
2022-08-09T18:30:40.979Z,19.42
2022-08-09T18:32:47.710Z,19.38
2022-08-09T18:35:22.369Z,19.36
2022-08-09T18:38:08.206Z,19.36
2022-08-09T18:40:35.576Z,19.37
2022-08-09T18:43:03.778Z,19.36
2022-08-09T18:46:45.945Z,19.29
2022-08-09T18:48:17.893Z,19.27
2022-08-09T18:50:44.830Z,19.24
2022-08-09T18:53:16.634Z,19.18
2022-08-09T18:55:56.063Z,19.17
2022-08-09T18:58:32.069Z,19.15
2022-08-09T19:01:00.404Z,19.20
2022-08-09T19:03:28.602Z,19.18
2022-08-09T19:06:03.426Z,19.09
2022-08-09T19:08:30.947Z,19.11
2022-08-09T19:10:57.601Z,19.03
2022-08-09T19:13:49.801Z,19.05
2022-08-09T19:16:11.411Z,19.01
2022-08-09T19:18:45.308Z,19.09
2022-08-09T19:21:12.214Z,19.11
2022-08-09T19:24:32.796Z,19.05
2022-08-09T19:26:29.547Z,19.11
2022-08-09T19:29:15.309Z,19.16
2022-08-09T19:31:49.370Z,19.00
2022-08-09T19:34:23.138Z,19.11
2022-08-09T19:36:52.626Z,19.14
2022-08-09T19:39:20.662Z,19.17
2022-08-09T19:41:56.277Z,19.09
2022-08-09T19:44:23.855Z,19.06
2022-08-09T19:46:53.534Z,19.06
2022-08-09T19:50:09.025Z,19.02
2022-08-09T19:52:08.446Z,18.88
2022-08-09T19:54:35.070Z,18.99
2022-08-09T19:57:02.366Z,18.70
2022-08-09T19:59:57.602Z,18.95
2022-08-09T20:04:17.882Z,18.92
2022-08-09T20:05:11.552Z,18.86
2022-08-09T20:08:00.255Z,18.86
2022-08-09T20:10:36.368Z,18.92
2022-08-09T20:13:05.611Z,18.80
2022-08-09T20:16:38.491Z,18.71
2022-08-09T20:18:20.266Z,18.57
2022-08-09T20:20:51.052Z,18.75
2022-08-09T20:23:21.109Z,18.79
2022-08-09T20:25:52.324Z,18.69
2022-08-09T20:28:28.176Z,18.74
2022-08-09T20:31:04.938Z,18.70
2022-08-09T20:33:39.019Z,18.52
2022-08-09T20:36:08.839Z,18.59
2022-08-09T20:39:02.657Z,18.45
2022-08-09T20:41:32.170Z,18.53
2022-08-09T20:44:02.346Z,18.51
2022-08-09T20:46:41.808Z,18.54
2022-08-09T20:49:11.405Z,18.55
2022-08-09T20:51:41.535Z,18.53
2022-08-09T20:54:12.540Z,18.43
2022-08-09T20:56:46.794Z,18.45
2022-08-09T20:59:17.234Z,18.42
2022-08-09T21:01:51.599Z,18.42
2022-08-09T21:05:51.579Z,18.29
2022-08-09T21:07:11.634Z,18.36
2022-08-09T21:09:56.797Z,18.35
2022-08-09T21:15:16.465Z,18.36
2022-08-09T21:18:23.758Z,18.36
2022-08-09T21:20:31.035Z,18.26
2022-08-09T21:22:59.584Z,18.22
2022-08-09T21:25:56.432Z,18.27
2022-08-09T21:28:34.158Z,18.26
2022-08-09T21:31:17.025Z,18.24
2022-08-09T21:33:50.906Z,18.24
2022-08-09T21:36:25.854Z,18.19
2022-08-09T21:38:56.994Z,18.08
2022-08-09T21:42:04.514Z,18.10
2022-08-09T21:44:34.385Z,18.12
2022-08-09T21:47:05.927Z,18.16
2022-08-09T21:49:40.523Z,18.14
2022-08-09T21:52:17.884Z,18.18
2022-08-09T21:55:03.409Z,18.10
2022-08-09T21:57:38.664Z,18.10
2022-08-09T22:00:37.753Z,18.06
2022-08-09T22:03:07.254Z,18.11
2022-08-09T22:05:36.799Z,18.15
2022-08-09T22:08:13.903Z,18.12
2022-08-09T22:11:05.176Z,18.04
2022-08-09T22:13:34.268Z,18.07
2022-08-09T22:16:03.689Z,18.14
2022-08-09T22:18:32.664Z,18.17
2022-08-09T22:21:00.491Z,18.13
2022-08-09T22:23:35.714Z,18.06
2022-08-09T22:26:33.910Z,18.10
2022-08-09T22:29:05.391Z,18.09
2022-08-09T22:31:35.697Z,18.10
2022-08-09T22:34:02.358Z,18.01
2022-08-09T22:36:28.987Z,17.89
2022-08-09T22:39:04.490Z,17.81
2022-08-09T22:41:31.099Z,17.83
2022-08-09T22:44:01.666Z,17.87
2022-08-09T22:48:14.556Z,17.75
2022-08-09T22:49:16.098Z,17.78
2022-08-09T22:51:49.277Z,17.77
2022-08-09T22:54:21.376Z,17.75
2022-08-09T22:56:56.821Z,17.77
2022-08-09T22:59:56.182Z,17.82
2022-08-09T23:02:11.026Z,17.87
2022-08-09T23:04:53.724Z,17.85
2022-08-09T23:08:22.492Z,17.85
2022-08-09T23:10:28.015Z,17.81
2022-08-09T23:12:54.747Z,17.75
2022-08-09T23:15:21.342Z,17.71
2022-08-09T23:17:47.995Z,17.70
2022-08-09T23:20:14.660Z,17.72
2022-08-09T23:22:41.283Z,17.72
2022-08-09T23:25:08.279Z,17.71
2022-08-09T23:27:35.150Z,17.66
2022-08-09T23:30:02.106Z,17.64
2022-08-09T23:32:28.825Z,17.47
2022-08-09T23:34:55.533Z,17.58
2022-08-09T23:37:22.974Z,17.59
2022-08-09T23:39:52.391Z,17.78
2022-08-09T23:42:18.964Z,17.71
2022-08-09T23:44:45.575Z,17.69
2022-08-09T23:47:12.283Z,17.64
2022-08-09T23:49:38.901Z,17.63
2022-08-09T23:52:05.530Z,17.71
2022-08-09T23:54:32.100Z,17.64
2022-08-09T23:56:58.899Z,17.62
2022-08-09T23:59:25.982Z,17.62
